Terminal Aerodrome Forecast
Issued by NWS Blacksburg, VA

Home | Current Version | Previous Version | Text Only | Print | Product List | Glossary On
Versions: 1 2 3 4 5 6 7 8 9 10 11 12 13 14 15 16 17 18 19 20 21 22 23 24 25 26 27 28 29
000
FTUS41 KRNK 192322
TAFLYH
TAF
KLYH 192322Z 2000/2024 24004KT P6SM SKC
     FM200800 VRB03KT P6SM SKC WS020/28030KT
     FM201200 25005KT P6SM SKC
     FM201500 27010KT P6SM SKC=

USA.gov is the U.S. government's official web portal to all federal, state and local government web resources and services.